sensor_id;sensor_type;location;lat;lon;timestamp;temperature;humidity
7676;DHT22;3880;51.464;-2.566;2022-07-06T00:00:02;17.60;99.90
7676;DHT22;3880;51.464;-2.566;2022-07-06T00:02:30;17.60;99.90
7676;DHT22;3880;51.464;-2.566;2022-07-06T00:04:57;17.60;99.90
7676;DHT22;3880;51.464;-2.566;2022-07-06T00:07:24;17.60;99.90
7676;DHT22;3880;51.464;-2.566;2022-07-06T00:09:51;17.70;99.90
7676;DHT22;3880;51.464;-2.566;2022-07-06T00:12:18;17.60;99.90
7676;DHT22;3880;51.464;-2.566;2022-07-06T00:14:46;17.70;99.90
7676;DHT22;3880;51.464;-2.566;2022-07-06T00:17:14;17.60;99.90
7676;DHT22;3880;51.464;-2.566;2022-07-06T00:19:42;17.50;99.90
7676;DHT22;3880;51.464;-2.566;2022-07-06T00:22:09;17.50;99.90
7676;DHT22;3880;51.464;-2.566;2022-07-06T00:24:36;17.40;99.90
7676;DHT22;3880;51.464;-2.566;2022-07-06T00:27:04;17.40;99.90
7676;DHT22;3880;51.464;-2.566;2022-07-06T00:29:31;17.40;99.90
7676;DHT22;3880;51.464;-2.566;2022-07-06T00:31:58;17.30;99.90
7676;DHT22;3880;51.464;-2.566;2022-07-06T00:34:27;17.20;99.90
7676;DHT22;3880;51.464;-2.566;2022-07-06T00:36:54;17.00;99.90
7676;DHT22;3880;51.464;-2.566;2022-07-06T00:39:21;17.10;99.90
7676;DHT22;3880;51.464;-2.566;2022-07-06T00:41:54;17.00;99.90
7676;DHT22;3880;51.464;-2.566;2022-07-06T00:44:21;16.90;99.90
7676;DHT22;3880;51.464;-2.566;2022-07-06T00:46:49;17.00;99.90
7676;DHT22;3880;51.464;-2.566;2022-07-06T00:49:16;17.00;99.90
7676;DHT22;3880;51.464;-2.566;2022-07-06T00:51:59;17.10;99.90
7676;DHT22;3880;51.464;-2.566;2022-07-06T00:54:27;17.20;99.90
7676;DHT22;3880;51.464;-2.566;2022-07-06T00:56:55;17.20;99.90
7676;DHT22;3880;51.464;-2.566;2022-07-06T00:59:23;17.10;99.90
7676;DHT22;3880;51.464;-2.566;2022-07-06T01:01:50;16.80;99.90
7676;DHT22;3880;51.464;-2.566;2022-07-06T01:04:18;16.60;99.90
7676;DHT22;3880;51.464;-2.566;2022-07-06T01:06:45;16.60;99.90
7676;DHT22;3880;51.464;-2.566;2022-07-06T01:09:14;16.30;99.90
7676;DHT22;3880;51.464;-2.566;2022-07-06T01:11:42;16.20;99.90
7676;DHT22;3880;51.464;-2.566;2022-07-06T01:14:10;16.10;99.90
7676;DHT22;3880;51.464;-2.566;2022-07-06T01:16:38;16.00;99.90
7676;DHT22;3880;51.464;-2.566;2022-07-06T01:19:05;16.00;99.90
7676;DHT22;3880;51.464;-2.566;2022-07-06T01:21:33;16.10;99.90
7676;DHT22;3880;51.464;-2.566;2022-07-06T01:24:01;16.10;99.90
7676;DHT22;3880;51.464;-2.566;2022-07-06T01:26:28;16.10;99.90
7676;DHT22;3880;51.464;-2.566;2022-07-06T01:28:55;16.00;99.90
7676;DHT22;3880;51.464;-2.566;2022-07-06T01:31:24;16.00;99.90
7676;DHT22;3880;51.464;-2.566;2022-07-06T01:33:54;16.00;99.90
7676;DHT22;3880;51.464;-2.566;2022-07-06T01:36:22;15.90;99.90
7676;DHT22;3880;51.464;-2.566;2022-07-06T01:38:53;15.70;99.90
7676;DHT22;3880;51.464;-2.566;2022-07-06T01:41:21;15.70;99.90
7676;DHT22;3880;51.464;-2.566;2022-07-06T01:43:48;15.60;99.90
7676;DHT22;3880;51.464;-2.566;2022-07-06T01:46:15;15.90;99.90
7676;DHT22;3880;51.464;-2.566;2022-07-06T01:48:44;16.00;99.90
7676;DHT22;3880;51.464;-2.566;2022-07-06T01:51:11;16.00;99.90
7676;DHT22;3880;51.464;-2.566;2022-07-06T01:53:39;16.10;99.90
7676;DHT22;3880;51.464;-2.566;2022-07-06T01:56:08;16.10;99.90
7676;DHT22;3880;51.464;-2.566;2022-07-06T01:58:35;16.20;99.90
7676;DHT22;3880;51.464;-2.566;2022-07-06T02:01:07;16.30;99.90
7676;DHT22;3880;51.464;-2.566;2022-07-06T02:03:34;16.40;99.90
7676;DHT22;3880;51.464;-2.566;2022-07-06T02:06:01;16.40;99.90
7676;DHT22;3880;51.464;-2.566;2022-07-06T02:08:28;16.30;99.90
7676;DHT22;3880;51.464;-2.566;2022-07-06T02:10:56;16.40;99.90
7676;DHT22;3880;51.464;-2.566;2022-07-06T02:13:24;16.50;99.90
7676;DHT22;3880;51.464;-2.566;2022-07-06T02:15:54;16.70;99.90
7676;DHT22;3880;51.464;-2.566;2022-07-06T02:18:25;16.70;99.90
7676;DHT22;3880;51.464;-2.566;2022-07-06T02:20:55;16.80;99.90
7676;DHT22;3880;51.464;-2.566;2022-07-06T02:23:22;16.90;99.90
7676;DHT22;3880;51.464;-2.566;2022-07-06T02:25:51;16.90;99.90
7676;DHT22;3880;51.464;-2.566;2022-07-06T02:28:19;16.80;99.90
7676;DHT22;3880;51.464;-2.566;2022-07-06T02:30:47;16.80;99.90
7676;DHT22;3880;51.464;-2.566;2022-07-06T02:33:15;16.80;99.90
7676;DHT22;3880;51.464;-2.566;2022-07-06T02:35:42;17.00;99.90
7676;DHT22;3880;51.464;-2.566;2022-07-06T02:38:09;16.90;99.90
7676;DHT22;3880;51.464;-2.566;2022-07-06T02:40:36;16.90;99.90
7676;DHT22;3880;51.464;-2.566;2022-07-06T02:43:04;16.90;99.90
7676;DHT22;3880;51.464;-2.566;2022-07-06T02:45:31;16.80;99.90
7676;DHT22;3880;51.464;-2.566;2022-07-06T02:47:59;16.80;99.90
7676;DHT22;3880;51.464;-2.566;2022-07-06T02:50:27;16.40;99.90
7676;DHT22;3880;51.464;-2.566;2022-07-06T02:52:54;16.40;99.90
7676;DHT22;3880;51.464;-2.566;2022-07-06T02:55:22;16.30;99.90
7676;DHT22;3880;51.464;-2.566;2022-07-06T02:57:49;16.40;99.90
7676;DHT22;3880;51.464;-2.566;2022-07-06T03:00:16;16.30;99.90
7676;DHT22;3880;51.464;-2.566;2022-07-06T03:02:44;16.30;99.90
7676;DHT22;3880;51.464;-2.566;2022-07-06T03:05:12;16.40;99.90
7676;DHT22;3880;51.464;-2.566;2022-07-06T03:07:39;16.30;99.90
7676;DHT22;3880;51.464;-2.566;2022-07-06T03:10:07;16.10;99.90
7676;DHT22;3880;51.464;-2.566;2022-07-06T03:12:34;16.00;99.90
7676;DHT22;3880;51.464;-2.566;2022-07-06T03:15:01;16.00;99.90
7676;DHT22;3880;51.464;-2.566;2022-07-06T03:17:29;16.10;99.90
7676;DHT22;3880;51.464;-2.566;2022-07-06T03:19:56;16.20;99.90
7676;DHT22;3880;51.464;-2.566;2022-07-06T03:22:24;16.10;99.90
7676;DHT22;3880;51.464;-2.566;2022-07-06T03:24:52;16.20;99.90
7676;DHT22;3880;51.464;-2.566;2022-07-06T03:27:19;16.50;99.90
7676;DHT22;3880;51.464;-2.566;2022-07-06T03:29:46;16.60;99.90
7676;DHT22;3880;51.464;-2.566;2022-07-06T03:32:13;16.80;99.90
7676;DHT22;3880;51.464;-2.566;2022-07-06T03:34:40;16.80;99.90
7676;DHT22;3880;51.464;-2.566;2022-07-06T03:37:07;16.90;99.90
7676;DHT22;3880;51.464;-2.566;2022-07-06T03:39:36;16.90;99.90
7676;DHT22;3880;51.464;-2.566;2022-07-06T03:42:03;16.70;99.90
7676;DHT22;3880;51.464;-2.566;2022-07-06T03:44:31;16.70;99.90
7676;DHT22;3880;51.464;-2.566;2022-07-06T03:46:58;16.70;99.90
7676;DHT22;3880;51.464;-2.566;2022-07-06T03:49:25;16.70;99.90
7676;DHT22;3880;51.464;-2.566;2022-07-06T03:51:54;16.50;99.90
7676;DHT22;3880;51.464;-2.566;2022-07-06T03:54:21;16.50;99.90
7676;DHT22;3880;51.464;-2.566;2022-07-06T03:56:50;16.50;99.90
7676;DHT22;3880;51.464;-2.566;2022-07-06T03:59:17;16.30;99.90
7676;DHT22;3880;51.464;-2.566;2022-07-06T04:01:44;16.30;99.90
7676;DHT22;3880;51.464;-2.566;2022-07-06T04:04:12;16.30;99.90
7676;DHT22;3880;51.464;-2.566;2022-07-06T04:06:39;16.40;99.90
7676;DHT22;3880;51.464;-2.566;2022-07-06T04:09:06;16.50;99.90
7676;DHT22;3880;51.464;-2.566;2022-07-06T04:11:33;16.50;99.90
7676;DHT22;3880;51.464;-2.566;2022-07-06T04:14:02;16.50;99.90
7676;DHT22;3880;51.464;-2.566;2022-07-06T04:16:29;16.30;99.90
7676;DHT22;3880;51.464;-2.566;2022-07-06T04:18:56;16.20;99.90
7676;DHT22;3880;51.464;-2.566;2022-07-06T04:21:26;16.20;99.90
7676;DHT22;3880;51.464;-2.566;2022-07-06T04:23:53;16.10;99.90
7676;DHT22;3880;51.464;-2.566;2022-07-06T04:26:20;16.00;99.90
7676;DHT22;3880;51.464;-2.566;2022-07-06T04:28:47;15.90;99.90
7676;DHT22;3880;51.464;-2.566;2022-07-06T04:31:16;15.80;99.90
7676;DHT22;3880;51.464;-2.566;2022-07-06T04:33:43;15.80;99.90
7676;DHT22;3880;51.464;-2.566;2022-07-06T04:36:11;15.90;99.90
7676;DHT22;3880;51.464;-2.566;2022-07-06T04:38:38;16.00;99.90
7676;DHT22;3880;51.464;-2.566;2022-07-06T04:41:05;15.80;99.90
7676;DHT22;3880;51.464;-2.566;2022-07-06T04:43:32;15.90;99.90
7676;DHT22;3880;51.464;-2.566;2022-07-06T04:45:59;15.90;99.90
7676;DHT22;3880;51.464;-2.566;2022-07-06T04:48:29;16.10;99.90
7676;DHT22;3880;51.464;-2.566;2022-07-06T04:50:58;16.20;99.90
7676;DHT22;3880;51.464;-2.566;2022-07-06T04:53:27;16.30;99.90
7676;DHT22;3880;51.464;-2.566;2022-07-06T04:55:54;16.30;99.90
7676;DHT22;3880;51.464;-2.566;2022-07-06T04:58:21;16.50;99.90
7676;DHT22;3880;51.464;-2.566;2022-07-06T05:00:48;16.70;99.90
7676;DHT22;3880;51.464;-2.566;2022-07-06T05:03:15;16.90;99.90
7676;DHT22;3880;51.464;-2.566;2022-07-06T05:05:44;17.00;99.90
7676;DHT22;3880;51.464;-2.566;2022-07-06T05:08:11;17.20;99.90
7676;DHT22;3880;51.464;-2.566;2022-07-06T05:10:38;17.30;99.90
7676;DHT22;3880;51.464;-2.566;2022-07-06T05:13:05;17.30;99.90
7676;DHT22;3880;51.464;-2.566;2022-07-06T05:15:33;17.40;99.90
7676;DHT22;3880;51.464;-2.566;2022-07-06T05:18:00;17.50;99.90
7676;DHT22;3880;51.464;-2.566;2022-07-06T05:20:27;17.60;99.90
7676;DHT22;3880;51.464;-2.566;2022-07-06T05:22:57;17.70;99.90
7676;DHT22;3880;51.464;-2.566;2022-07-06T05:25:24;17.90;99.90
7676;DHT22;3880;51.464;-2.566;2022-07-06T05:27:52;17.90;99.90
7676;DHT22;3880;51.464;-2.566;2022-07-06T05:30:19;18.20;99.90
7676;DHT22;3880;51.464;-2.566;2022-07-06T05:32:46;18.10;99.90
7676;DHT22;3880;51.464;-2.566;2022-07-06T05:35:13;18.20;99.90
7676;DHT22;3880;51.464;-2.566;2022-07-06T05:37:41;18.30;99.90
7676;DHT22;3880;51.464;-2.566;2022-07-06T05:40:11;18.40;99.90
7676;DHT22;3880;51.464;-2.566;2022-07-06T05:42:38;18.50;99.90
7676;DHT22;3880;51.464;-2.566;2022-07-06T05:45:06;18.50;99.90
7676;DHT22;3880;51.464;-2.566;2022-07-06T05:47:34;18.60;99.90
7676;DHT22;3880;51.464;-2.566;2022-07-06T05:50:20;18.70;99.90
7676;DHT22;3880;51.464;-2.566;2022-07-06T05:52:56;18.80;99.90
7676;DHT22;3880;51.464;-2.566;2022-07-06T05:55:27;18.80;99.90
7676;DHT22;3880;51.464;-2.566;2022-07-06T05:57:55;18.70;99.90
7676;DHT22;3880;51.464;-2.566;2022-07-06T06:00:24;18.80;99.90
7676;DHT22;3880;51.464;-2.566;2022-07-06T06:02:52;18.70;99.90
7676;DHT22;3880;51.464;-2.566;2022-07-06T06:05:20;18.80;99.90
7676;DHT22;3880;51.464;-2.566;2022-07-06T06:07:48;18.40;99.90
7676;DHT22;3880;51.464;-2.566;2022-07-06T06:10:17;18.50;99.90
7676;DHT22;3880;51.464;-2.566;2022-07-06T06:12:46;18.50;99.90
7676;DHT22;3880;51.464;-2.566;2022-07-06T06:15:13;18.70;99.90
7676;DHT22;3880;51.464;-2.566;2022-07-06T06:17:41;18.70;99.90
7676;DHT22;3880;51.464;-2.566;2022-07-06T06:20:10;18.90;99.90
7676;DHT22;3880;51.464;-2.566;2022-07-06T06:22:45;19.00;99.90
7676;DHT22;3880;51.464;-2.566;2022-07-06T06:25:13;18.90;99.90
7676;DHT22;3880;51.464;-2.566;2022-07-06T06:27:40;18.70;99.90
7676;DHT22;3880;51.464;-2.566;2022-07-06T06:30:10;18.60;99.90
7676;DHT22;3880;51.464;-2.566;2022-07-06T06:32:37;18.70;99.90
7676;DHT22;3880;51.464;-2.566;2022-07-06T06:35:05;18.90;99.90
7676;DHT22;3880;51.464;-2.566;2022-07-06T06:37:33;18.90;99.90
7676;DHT22;3880;51.464;-2.566;2022-07-06T06:40:01;18.90;99.90
7676;DHT22;3880;51.464;-2.566;2022-07-06T06:42:28;18.70;99.90
7676;DHT22;3880;51.464;-2.566;2022-07-06T06:44:55;18.70;99.90
7676;DHT22;3880;51.464;-2.566;2022-07-06T06:47:24;18.70;99.90
7676;DHT22;3880;51.464;-2.566;2022-07-06T06:49:51;18.80;99.90
7676;DHT22;3880;51.464;-2.566;2022-07-06T06:52:18;18.70;99.90
7676;DHT22;3880;51.464;-2.566;2022-07-06T06:54:45;18.90;99.90
7676;DHT22;3880;51.464;-2.566;2022-07-06T06:57:12;19.10;99.90
7676;DHT22;3880;51.464;-2.566;2022-07-06T06:59:39;19.30;99.90
7676;DHT22;3880;51.464;-2.566;2022-07-06T07:02:06;19.50;99.90
7676;DHT22;3880;51.464;-2.566;2022-07-06T07:04:34;19.60;99.90
7676;DHT22;3880;51.464;-2.566;2022-07-06T07:07:02;19.80;99.90
7676;DHT22;3880;51.464;-2.566;2022-07-06T07:09:29;20.00;99.90
7676;DHT22;3880;51.464;-2.566;2022-07-06T07:11:56;20.20;99.90
7676;DHT22;3880;51.464;-2.566;2022-07-06T07:14:23;20.30;99.90
7676;DHT22;3880;51.464;-2.566;2022-07-06T07:16:50;20.10;99.90
7676;DHT22;3880;51.464;-2.566;2022-07-06T07:19:17;20.10;99.90
7676;DHT22;3880;51.464;-2.566;2022-07-06T07:21:46;20.00;99.90
7676;DHT22;3880;51.464;-2.566;2022-07-06T07:24:13;20.00;99.90
7676;DHT22;3880;51.464;-2.566;2022-07-06T07:26:40;20.30;99.90
7676;DHT22;3880;51.464;-2.566;2022-07-06T07:29:10;20.30;99.90
7676;DHT22;3880;51.464;-2.566;2022-07-06T07:31:38;20.40;99.90
7676;DHT22;3880;51.464;-2.566;2022-07-06T07:34:05;20.30;99.90
7676;DHT22;3880;51.464;-2.566;2022-07-06T07:36:32;20.10;99.90
7676;DHT22;3880;51.464;-2.566;2022-07-06T07:39:01;20.00;99.90
7676;DHT22;3880;51.464;-2.566;2022-07-06T07:41:28;19.90;99.90
7676;DHT22;3880;51.464;-2.566;2022-07-06T07:43:55;19.80;99.90
7676;DHT22;3880;51.464;-2.566;2022-07-06T07:46:22;19.70;99.90
7676;DHT22;3880;51.464;-2.566;2022-07-06T07:48:49;19.70;99.90
7676;DHT22;3880;51.464;-2.566;2022-07-06T07:51:17;19.80;99.90
7676;DHT22;3880;51.464;-2.566;2022-07-06T07:53:44;20.00;99.90
7676;DHT22;3880;51.464;-2.566;2022-07-06T07:56:12;20.00;99.90
7676;DHT22;3880;51.464;-2.566;2022-07-06T07:58:40;20.00;99.90
7676;DHT22;3880;51.464;-2.566;2022-07-06T08:01:07;19.80;99.90
7676;DHT22;3880;51.464;-2.566;2022-07-06T08:03:34;20.00;99.90
7676;DHT22;3880;51.464;-2.566;2022-07-06T08:06:01;20.40;99.90
7676;DHT22;3880;51.464;-2.566;2022-07-06T08:08:28;20.70;99.90
7676;DHT22;3880;51.464;-2.566;2022-07-06T08:10:56;20.60;99.90
7676;DHT22;3880;51.464;-2.566;2022-07-06T08:13:24;20.70;99.90
7676;DHT22;3880;51.464;-2.566;2022-07-06T08:15:51;20.80;99.90
7676;DHT22;3880;51.464;-2.566;2022-07-06T08:18:18;20.80;99.90
7676;DHT22;3880;51.464;-2.566;2022-07-06T08:20:45;20.70;99.90
7676;DHT22;3880;51.464;-2.566;2022-07-06T08:23:12;20.90;99.90
7676;DHT22;3880;51.464;-2.566;2022-07-06T08:25:40;21.10;99.90
7676;DHT22;3880;51.464;-2.566;2022-07-06T08:28:07;21.40;99.90
7676;DHT22;3880;51.464;-2.566;2022-07-06T08:30:36;21.40;99.90
7676;DHT22;3880;51.464;-2.566;2022-07-06T08:33:03;21.40;99.90
7676;DHT22;3880;51.464;-2.566;2022-07-06T08:35:30;21.30;99.90
7676;DHT22;3880;51.464;-2.566;2022-07-06T08:38:00;21.20;99.90
7676;DHT22;3880;51.464;-2.566;2022-07-06T08:40:32;21.10;99.90
7676;DHT22;3880;51.464;-2.566;2022-07-06T08:43:01;21.00;99.90
7676;DHT22;3880;51.464;-2.566;2022-07-06T08:45:30;21.20;99.90
7676;DHT22;3880;51.464;-2.566;2022-07-06T08:48:04;21.10;99.90
7676;DHT22;3880;51.464;-2.566;2022-07-06T08:50:33;21.10;99.90
7676;DHT22;3880;51.464;-2.566;2022-07-06T08:53:00;21.20;99.90
7676;DHT22;3880;51.464;-2.566;2022-07-06T08:55:32;21.20;99.90
7676;DHT22;3880;51.464;-2.566;2022-07-06T08:58:00;21.20;99.90
7676;DHT22;3880;51.464;-2.566;2022-07-06T09:00:27;21.10;99.90
7676;DHT22;3880;51.464;-2.566;2022-07-06T09:02:54;21.30;99.90
7676;DHT22;3880;51.464;-2.566;2022-07-06T09:05:24;21.20;99.90
7676;DHT22;3880;51.464;-2.566;2022-07-06T09:07:52;21.20;99.90
7676;DHT22;3880;51.464;-2.566;2022-07-06T09:10:21;21.20;99.90
7676;DHT22;3880;51.464;-2.566;2022-07-06T09:12:48;21.30;99.90
7676;DHT22;3880;51.464;-2.566;2022-07-06T09:15:16;21.40;99.90
7676;DHT22;3880;51.464;-2.566;2022-07-06T09:17:43;21.50;99.90
7676;DHT22;3880;51.464;-2.566;2022-07-06T09:20:26;21.60;99.90
7676;DHT22;3880;51.464;-2.566;2022-07-06T09:22:57;21.80;99.90
7676;DHT22;3880;51.464;-2.566;2022-07-06T09:25:28;22.30;99.90
7676;DHT22;3880;51.464;-2.566;2022-07-06T09:27:57;22.30;99.90
7676;DHT22;3880;51.464;-2.566;2022-07-06T09:30:26;22.50;99.90
7676;DHT22;3880;51.464;-2.566;2022-07-06T09:32:55;23.00;99.90
7676;DHT22;3880;51.464;-2.566;2022-07-06T09:35:24;23.10;99.90
7676;DHT22;3880;51.464;-2.566;2022-07-06T09:38:02;23.30;99.90
7676;DHT22;3880;51.464;-2.566;2022-07-06T09:40:32;23.70;99.90
7676;DHT22;3880;51.464;-2.566;2022-07-06T09:43:10;23.60;99.90
7676;DHT22;3880;51.464;-2.566;2022-07-06T09:45:39;23.50;99.90
7676;DHT22;3880;51.464;-2.566;2022-07-06T09:48:09;23.90;99.90
7676;DHT22;3880;51.464;-2.566;2022-07-06T09:50:45;24.40;99.90
7676;DHT22;3880;51.464;-2.566;2022-07-06T09:53:14;24.70;99.90
7676;DHT22;3880;51.464;-2.566;2022-07-06T09:55:45;24.90;99.90
7676;DHT22;3880;51.464;-2.566;2022-07-06T09:58:13;25.00;99.90
7676;DHT22;3880;51.464;-2.566;2022-07-06T10:00:40;24.80;99.90
7676;DHT22;3880;51.464;-2.566;2022-07-06T10:03:09;25.00;99.90
7676;DHT22;3880;51.464;-2.566;2022-07-06T10:05:37;24.90;99.90
7676;DHT22;3880;51.464;-2.566;2022-07-06T10:08:05;24.90;99.90
7676;DHT22;3880;51.464;-2.566;2022-07-06T10:10:37;24.90;99.90
7676;DHT22;3880;51.464;-2.566;2022-07-06T10:13:05;25.30;99.90
7676;DHT22;3880;51.464;-2.566;2022-07-06T10:15:34;25.70;99.90
7676;DHT22;3880;51.464;-2.566;2022-07-06T10:18:03;27.00;99.90
7676;DHT22;3880;51.464;-2.566;2022-07-06T10:20:33;28.00;99.90
7676;DHT22;3880;51.464;-2.566;2022-07-06T10:23:04;28.50;99.90
7676;DHT22;3880;51.464;-2.566;2022-07-06T10:25:32;28.00;99.90
7676;DHT22;3880;51.464;-2.566;2022-07-06T10:28:02;27.10;99.90
7676;DHT22;3880;51.464;-2.566;2022-07-06T10:30:37;26.60;99.90
7676;DHT22;3880;51.464;-2.566;2022-07-06T10:33:04;26.10;99.90
7676;DHT22;3880;51.464;-2.566;2022-07-06T10:35:32;25.50;99.90
7676;DHT22;3880;51.464;-2.566;2022-07-06T10:38:04;25.30;99.90
7676;DHT22;3880;51.464;-2.566;2022-07-06T10:40:35;25.10;99.90
7676;DHT22;3880;51.464;-2.566;2022-07-06T10:43:21;24.70;99.90
7676;DHT22;3880;51.464;-2.566;2022-07-06T10:45:52;24.80;99.90
7676;DHT22;3880;51.464;-2.566;2022-07-06T10:48:20;25.90;99.90
7676;DHT22;3880;51.464;-2.566;2022-07-06T10:50:50;26.70;99.90
7676;DHT22;3880;51.464;-2.566;2022-07-06T10:53:22;26.10;99.90
7676;DHT22;3880;51.464;-2.566;2022-07-06T10:55:51;25.10;99.90
7676;DHT22;3880;51.464;-2.566;2022-07-06T10:58:40;24.80;99.90
7676;DHT22;3880;51.464;-2.566;2022-07-06T11:01:08;24.90;99.90
7676;DHT22;3880;51.464;-2.566;2022-07-06T11:03:37;25.00;99.90
7676;DHT22;3880;51.464;-2.566;2022-07-06T11:06:10;26.20;99.90
7676;DHT22;3880;51.464;-2.566;2022-07-06T11:08:57;26.50;99.90
7676;DHT22;3880;51.464;-2.566;2022-07-06T11:11:26;27.40;99.90
7676;DHT22;3880;51.464;-2.566;2022-07-06T11:14:06;27.80;99.90
7676;DHT22;3880;51.464;-2.566;2022-07-06T11:16:36;26.70;99.90
7676;DHT22;3880;51.464;-2.566;2022-07-06T11:19:07;26.30;99.90
7676;DHT22;3880;51.464;-2.566;2022-07-06T11:21:45;26.30;99.90
7676;DHT22;3880;51.464;-2.566;2022-07-06T11:24:14;26.90;99.90
7676;DHT22;3880;51.464;-2.566;2022-07-06T11:26:44;26.80;99.90
7676;DHT22;3880;51.464;-2.566;2022-07-06T11:29:15;26.50;99.90
7676;DHT22;3880;51.464;-2.566;2022-07-06T11:31:43;26.00;99.90
7676;DHT22;3880;51.464;-2.566;2022-07-06T11:34:12;24.90;99.90
7676;DHT22;3880;51.464;-2.566;2022-07-06T11:36:40;24.30;99.90
7676;DHT22;3880;51.464;-2.566;2022-07-06T11:39:07;23.80;99.90
7676;DHT22;3880;51.464;-2.566;2022-07-06T11:41:35;23.60;99.90
7676;DHT22;3880;51.464;-2.566;2022-07-06T11:44:03;24.20;99.90
7676;DHT22;3880;51.464;-2.566;2022-07-06T11:46:33;24.80;99.90
7676;DHT22;3880;51.464;-2.566;2022-07-06T11:49:02;24.50;99.90
7676;DHT22;3880;51.464;-2.566;2022-07-06T11:51:31;24.70;99.90
7676;DHT22;3880;51.464;-2.566;2022-07-06T11:54:00;24.90;99.90
7676;DHT22;3880;51.464;-2.566;2022-07-06T11:56:28;24.90;99.90
7676;DHT22;3880;51.464;-2.566;2022-07-06T11:58:58;25.00;99.90
7676;DHT22;3880;51.464;-2.566;2022-07-06T12:01:26;26.00;99.90
7676;DHT22;3880;51.464;-2.566;2022-07-06T12:03:57;27.40;99.90
7676;DHT22;3880;51.464;-2.566;2022-07-06T12:06:26;28.60;99.90
7676;DHT22;3880;51.464;-2.566;2022-07-06T12:08:54;30.20;99.90
7676;DHT22;3880;51.464;-2.566;2022-07-06T12:11:23;30.20;99.90
7676;DHT22;3880;51.464;-2.566;2022-07-06T12:13:51;29.10;99.90
7676;DHT22;3880;51.464;-2.566;2022-07-06T12:16:19;28.90;99.90
7676;DHT22;3880;51.464;-2.566;2022-07-06T12:18:49;29.60;99.90
7676;DHT22;3880;51.464;-2.566;2022-07-06T12:21:20;29.70;99.90
7676;DHT22;3880;51.464;-2.566;2022-07-06T12:23:49;29.90;99.90
7676;DHT22;3880;51.464;-2.566;2022-07-06T12:26:18;29.80;99.90
7676;DHT22;3880;51.464;-2.566;2022-07-06T12:28:46;30.60;99.90
7676;DHT22;3880;51.464;-2.566;2022-07-06T12:31:31;31.10;99.90
7676;DHT22;3880;51.464;-2.566;2022-07-06T12:33:59;30.00;99.90
7676;DHT22;3880;51.464;-2.566;2022-07-06T12:36:29;29.30;99.90
7676;DHT22;3880;51.464;-2.566;2022-07-06T12:38:57;29.30;99.90
7676;DHT22;3880;51.464;-2.566;2022-07-06T12:41:29;28.80;99.90
7676;DHT22;3880;51.464;-2.566;2022-07-06T12:44:05;27.40;99.90
7676;DHT22;3880;51.464;-2.566;2022-07-06T12:46:34;27.70;99.90
7676;DHT22;3880;51.464;-2.566;2022-07-06T12:49:10;27.20;99.90
7676;DHT22;3880;51.464;-2.566;2022-07-06T12:51:53;28.30;99.90
7676;DHT22;3880;51.464;-2.566;2022-07-06T12:54:22;29.60;99.90
7676;DHT22;3880;51.464;-2.566;2022-07-06T12:57:08;30.60;99.90
7676;DHT22;3880;51.464;-2.566;2022-07-06T12:59:39;30.10;99.90
7676;DHT22;3880;51.464;-2.566;2022-07-06T13:02:08;29.70;99.90
7676;DHT22;3880;51.464;-2.566;2022-07-06T13:04:36;29.40;99.90
7676;DHT22;3880;51.464;-2.566;2022-07-06T13:07:05;30.00;99.90
7676;DHT22;3880;51.464;-2.566;2022-07-06T13:09:32;29.30;99.90
7676;DHT22;3880;51.464;-2.566;2022-07-06T13:12:01;28.50;99.90
7676;DHT22;3880;51.464;-2.566;2022-07-06T13:14:28;28.50;99.90
7676;DHT22;3880;51.464;-2.566;2022-07-06T13:16:55;29.20;99.90
7676;DHT22;3880;51.464;-2.566;2022-07-06T13:19:22;29.90;99.90
7676;DHT22;3880;51.464;-2.566;2022-07-06T13:21:49;30.00;99.90
7676;DHT22;3880;51.464;-2.566;2022-07-06T13:24:18;29.80;99.90
7676;DHT22;3880;51.464;-2.566;2022-07-06T13:26:45;29.70;99.90
7676;DHT22;3880;51.464;-2.566;2022-07-06T13:29:12;30.20;99.90
7676;DHT22;3880;51.464;-2.566;2022-07-06T13:31:40;30.30;99.90
7676;DHT22;3880;51.464;-2.566;2022-07-06T13:34:08;31.00;99.90
7676;DHT22;3880;51.464;-2.566;2022-07-06T13:36:35;30.60;99.90
7676;DHT22;3880;51.464;-2.566;2022-07-06T13:39:03;30.70;99.90
7676;DHT22;3880;51.464;-2.566;2022-07-06T13:41:31;30.40;99.90
7676;DHT22;3880;51.464;-2.566;2022-07-06T13:43:59;30.20;99.90
7676;DHT22;3880;51.464;-2.566;2022-07-06T13:46:27;30.80;99.90
7676;DHT22;3880;51.464;-2.566;2022-07-06T13:48:54;31.60;99.90
7676;DHT22;3880;51.464;-2.566;2022-07-06T13:51:22;31.80;99.90
7676;DHT22;3880;51.464;-2.566;2022-07-06T13:53:50;31.10;99.90
7676;DHT22;3880;51.464;-2.566;2022-07-06T13:56:17;30.90;99.90
7676;DHT22;3880;51.464;-2.566;2022-07-06T13:58:46;30.80;99.90
7676;DHT22;3880;51.464;-2.566;2022-07-06T14:01:13;31.10;99.90
7676;DHT22;3880;51.464;-2.566;2022-07-06T14:03:40;31.50;99.90
7676;DHT22;3880;51.464;-2.566;2022-07-06T14:06:08;31.50;99.90
7676;DHT22;3880;51.464;-2.566;2022-07-06T14:08:36;30.50;99.90
7676;DHT22;3880;51.464;-2.566;2022-07-06T14:11:04;30.60;99.90
7676;DHT22;3880;51.464;-2.566;2022-07-06T14:13:31;30.00;99.90
7676;DHT22;3880;51.464;-2.566;2022-07-06T14:16:01;28.80;99.90
7676;DHT22;3880;51.464;-2.566;2022-07-06T14:18:28;28.50;99.90
7676;DHT22;3880;51.464;-2.566;2022-07-06T14:20:55;27.60;99.90
7676;DHT22;3880;51.464;-2.566;2022-07-06T14:23:23;26.70;99.90
7676;DHT22;3880;51.464;-2.566;2022-07-06T14:25:51;25.90;99.90
7676;DHT22;3880;51.464;-2.566;2022-07-06T14:28:20;25.30;99.90
7676;DHT22;3880;51.464;-2.566;2022-07-06T14:30:47;25.20;99.90
7676;DHT22;3880;51.464;-2.566;2022-07-06T14:33:16;25.20;99.90
7676;DHT22;3880;51.464;-2.566;2022-07-06T14:35:46;25.40;99.90
7676;DHT22;3880;51.464;-2.566;2022-07-06T14:38:14;25.50;99.90
7676;DHT22;3880;51.464;-2.566;2022-07-06T14:40:42;25.50;99.90
7676;DHT22;3880;51.464;-2.566;2022-07-06T14:43:09;26.30;99.90
7676;DHT22;3880;51.464;-2.566;2022-07-06T14:45:36;27.40;99.90
7676;DHT22;3880;51.464;-2.566;2022-07-06T14:48:05;28.40;99.90
7676;DHT22;3880;51.464;-2.566;2022-07-06T14:50:33;28.60;99.90
7676;DHT22;3880;51.464;-2.566;2022-07-06T14:53:01;28.90;99.90
7676;DHT22;3880;51.464;-2.566;2022-07-06T14:55:29;29.30;99.90
7676;DHT22;3880;51.464;-2.566;2022-07-06T14:57:58;29.60;99.90
7676;DHT22;3880;51.464;-2.566;2022-07-06T15:00:25;29.20;99.90
7676;DHT22;3880;51.464;-2.566;2022-07-06T15:02:52;28.20;99.90
7676;DHT22;3880;51.464;-2.566;2022-07-06T15:05:19;27.90;99.90
7676;DHT22;3880;51.464;-2.566;2022-07-06T15:07:47;27.70;99.90
7676;DHT22;3880;51.464;-2.566;2022-07-06T15:10:15;27.80;99.90
7676;DHT22;3880;51.464;-2.566;2022-07-06T15:12:42;27.80;99.90
7676;DHT22;3880;51.464;-2.566;2022-07-06T15:15:10;28.20;99.90
7676;DHT22;3880;51.464;-2.566;2022-07-06T15:17:37;28.60;99.90
7676;DHT22;3880;51.464;-2.566;2022-07-06T15:20:05;28.60;99.90
7676;DHT22;3880;51.464;-2.566;2022-07-06T15:22:32;28.40;99.90
7676;DHT22;3880;51.464;-2.566;2022-07-06T15:25:03;27.20;99.90
7676;DHT22;3880;51.464;-2.566;2022-07-06T15:27:30;26.50;99.90
7676;DHT22;3880;51.464;-2.566;2022-07-06T15:29:57;26.10;99.90
7676;DHT22;3880;51.464;-2.566;2022-07-06T15:32:24;25.50;99.90
7676;DHT22;3880;51.464;-2.566;2022-07-06T15:34:51;25.30;99.90
7676;DHT22;3880;51.464;-2.566;2022-07-06T15:37:19;25.00;99.90
7676;DHT22;3880;51.464;-2.566;2022-07-06T15:39:46;24.90;99.90
7676;DHT22;3880;51.464;-2.566;2022-07-06T15:42:14;24.60;99.90
7676;DHT22;3880;51.464;-2.566;2022-07-06T15:44:41;25.20;99.90
7676;DHT22;3880;51.464;-2.566;2022-07-06T15:47:09;25.80;99.90
7676;DHT22;3880;51.464;-2.566;2022-07-06T15:49:36;26.40;99.90
7676;DHT22;3880;51.464;-2.566;2022-07-06T15:52:03;27.00;99.90